Time;durP1;ratioP1;P1;durP2;ratioP2;P2;SDS_P1;SDS_P2;PMS_P1;PMS_P2;Temp;Humidity;BMP_temperature;BMP_pressure;BME280_temperature;BME280_humidity;BME280_pressure;Samples;Min_cycle;Max_cycle;Signal;HPM_P1;HPM_P2
2021/07/08 00:01:06;;;;;;;17.23;9.73;;;665.70;1689.60;;;;;;5093190;28;20516;-83
2021/07/08 00:03:33;;;;;;;19.10;10.02;;;665.70;1689.60;;;;;;5093409;28;20032;-84
2021/07/08 00:05:58;;;;;;;15.65;9.60;;;665.60;1715.20;;;;;;5092422;28;20057;-83
2021/07/08 00:08:24;;;;;;;18.92;8.50;;;640.80;1689.60;;;;;;5091810;28;20020;-83
2021/07/08 00:10:53;;;;;;;16.67;9.48;;;640.90;1689.60;;;;;;5091987;28;20119;-83
2021/07/08 00:13:25;;;;;;;21.17;10.45;;;640.70;1715.20;;;;;;5091951;28;20024;-84
2021/07/08 00:15:53;;;;;;;17.13;9.52;;;640.70;1740.80;;;;;;5091530;28;20028;-82
2021/07/08 00:18:20;;;;;;;18.90;10.27;;;640.70;1740.80;;;;;;5091534;28;20062;-82
2021/07/08 00:20:47;;;;;;;21.75;10.23;;;640.70;1740.80;;;;;;5106057;28;20023;-83
2021/07/08 00:23:15;;;;;;;26.23;10.52;;;640.90;1740.80;;;;;;5112068;28;20031;-83
2021/07/08 00:25:41;;;;;;;19.67;10.85;;;665.60;1740.80;;;;;;5115988;28;20051;-82
2021/07/08 00:28:09;;;;;;;16.90;9.48;;;665.70;1715.20;;;;;;5116277;28;20020;-83
2021/07/08 00:30:34;;;;;;;17.25;9.98;;;665.80;1715.20;;;;;;5115911;28;20032;-84
2021/07/08 00:33:00;;;;;;;18.38;10.30;;;666.00;1715.20;;;;;;5115991;28;20081;-83
2021/07/08 00:35:26;;;;;;;27.85;10.95;;;665.70;1715.20;;;;;;5115666;28;20023;-84
2021/07/08 00:37:52;;;;;;;22.63;10.48;;;665.70;1715.20;;;;;;5116107;28;20035;-83
2021/07/08 00:40:18;;;;;;;18.08;9.98;;;665.60;1740.80;;;;;;5115413;28;20027;-82
2021/07/08 00:42:45;;;;;;;19.75;10.10;;;665.60;1740.80;;;;;;5115717;28;20028;-83
2021/07/08 00:45:15;;;;;;;18.75;10.80;;;640.90;1715.20;;;;;;5115606;28;20044;-83
2021/07/08 00:47:41;;;;;;;27.95;11.02;;;640.70;1740.80;;;;;;5116009;28;20022;-83
2021/07/08 00:50:09;;;;;;;17.85;9.65;;;640.60;1766.40;;;;;;5115575;28;20027;-83
2021/07/08 00:52:36;;;;;;;23.58;9.50;;;640.50;1766.40;;;;;;5116536;28;20050;-83
2021/07/08 00:55:03;;;;;;;25.77;11.38;;;640.40;1766.40;;;;;;5115184;28;20100;-83
2021/07/08 00:57:28;;;;;;;19.42;11.07;;;640.20;1792.00;;;;;;5115432;27;20035;-83
2021/07/08 00:59:54;;;;;;;17.45;10.43;;;640.40;1766.40;;;;;;5115056;28;20020;-83
2021/07/08 01:02:22;;;;;;;19.08;11.15;;;640.40;1766.40;;;;;;5115570;28;20107;-83
2021/07/08 01:04:49;;;;;;;21.27;10.82;;;640.20;1792.00;;;;;;5114796;28;20467;-83
2021/07/08 01:07:19;;;;;;;19.23;11.00;;;640.10;1792.00;;;;;;5115501;28;20102;-83
2021/07/08 01:09:45;;;;;;;28.38;11.30;;;640.10;1792.00;;;;;;5115068;27;20080;-83
2021/07/08 01:12:11;;;;;;;30.02;10.32;;;640.10;1792.00;;;;;;5115608;27;20023;-83
2021/07/08 01:14:37;;;;;;;25.50;10.63;;;640.10;1792.00;;;;;;5135537;28;20050;-83
2021/07/08 01:17:05;;;;;;;20.20;11.30;;;640.10;1792.00;;;;;;5139768;28;20016;-83
2021/07/08 01:19:32;;;;;;;19.08;11.50;;;640.10;1792.00;;;;;;5116105;28;20083;-83
2021/07/08 01:21:58;;;;;;;19.15;11.30;;;640.10;1792.00;;;;;;5095142;28;20028;-82
2021/07/08 01:24:24;;;;;;;20.33;10.93;;;640.00;1817.60;;;;;;5095128;28;20074;-84
2021/07/08 01:26:51;;;;;;;19.13;10.90;;;640.00;1792.00;;;;;;5093896;28;20020;-83
2021/07/08 01:29:17;;;;;;;24.98;12.32;;;615.30;1817.60;;;;;;5094409;28;20030;-84
2021/07/08 01:31:42;;;;;;;18.08;11.02;;;615.20;1817.60;;;;;;5094367;28;20024;-81
2021/07/08 01:34:08;;;;;;;19.13;10.30;;;615.20;1817.60;;;;;;5095444;28;20031;-82
2021/07/08 01:36:34;;;;;;;18.50;10.25;;;615.30;1817.60;;;;;;5110546;28;20036;-83
2021/07/08 01:38:59;;;;;;;21.90;10.57;;;615.20;1843.20;;;;;;5093327;28;20024;-82
2021/07/08 01:41:25;;;;;;;19.33;10.13;;;615.20;1817.60;;;;;;5094414;28;20073;-83
2021/07/08 01:43:51;;;;;;;18.55;10.38;;;615.20;1817.60;;;;;;5093972;28;20052;-83
2021/07/08 01:46:18;;;;;;;21.45;11.13;;;615.30;1817.60;;;;;;5094252;28;20025;-83
2021/07/08 01:48:45;;;;;;;20.67;10.57;;;615.10;1843.20;;;;;;5095141;28;20076;-82
2021/07/08 01:51:29;;;;;;;20.90;11.13;;;615.10;1843.20;;;;;;5094045;28;20028;-83
2021/07/08 01:53:56;;;;;;;22.58;11.50;;;615.10;1843.20;;;;;;5094049;28;20111;-83
2021/07/08 01:56:22;;;;;;;24.17;11.02;;;614.90;1868.80;;;;;;5095064;28;20048;-83
2021/07/08 01:58:48;;;;;;;15.75;10.55;;;614.90;1868.80;;;;;;5093765;28;20027;-83
2021/07/08 02:01:14;;;;;;;20.20;10.98;;;614.90;1868.80;;;;;;5093765;28;20033;-82
2021/07/08 02:03:41;;;;;;;20.73;9.93;;;614.80;1868.80;;;;;;5093781;28;20024;-82
2021/07/08 02:06:08;;;;;;;16.73;11.45;;;614.70;1894.40;;;;;;5093490;28;20542;-83
2021/07/08 02:08:36;;;;;;;20.77;11.57;;;614.70;1894.40;;;;;;5093507;28;20035;-83
2021/07/08 02:11:02;;;;;;;21.50;10.60;;;614.70;1894.40;;;;;;5093527;28;20497;-83
2021/07/08 02:13:28;;;;;;;16.08;10.82;;;614.60;1894.40;;;;;;5093696;28;20036;-84
2021/07/08 02:15:53;;;;;;;21.10;11.60;;;614.50;1920.00;;;;;;5093444;28;20032;-83
2021/07/08 02:18:19;;;;;;;26.40;11.88;;;614.70;1894.40;;;;;;5093570;28;20028;-83
2021/07/08 02:20:45;;;;;;;30.08;10.90;;;614.70;1894.40;;;;;;5107785;28;20068;-83
2021/07/08 02:23:11;;;;;;;18.00;10.75;;;614.70;1894.40;;;;;;5113896;28;20473;-81
2021/07/08 02:25:36;;;;;;;18.98;11.02;;;614.70;1894.40;;;;;;5114872;28;20023;-83
2021/07/08 02:28:02;;;;;;;28.88;11.38;;;614.70;1894.40;;;;;;5113747;28;20027;-83
2021/07/08 02:30:28;;;;;;;22.08;11.18;;;614.70;1894.40;;;;;;5113519;28;20038;-82
2021/07/08 02:32:56;;;;;;;26.48;11.20;;;614.70;1894.40;;;;;;5113555;28;20119;-83
2021/07/08 02:35:24;;;;;;;15.02;9.95;;;614.70;1894.40;;;;;;5113500;28;20027;-83
2021/07/08 02:37:52;;;;;;;22.55;10.93;;;614.70;1894.40;;;;;;5113560;28;20023;-83
2021/07/08 02:40:26;;;;;;;18.58;9.98;;;614.80;1894.40;;;;;;5113603;28;20059;-83
2021/07/08 02:42:52;;;;;;;20.10;10.65;;;614.90;1868.80;;;;;;5114422;28;20031;-83
2021/07/08 02:45:26;;;;;;;19.90;11.00;;;614.80;1894.40;;;;;;5113128;28;20051;-83
2021/07/08 02:47:53;;;;;;;25.80;12.10;;;614.80;1894.40;;;;;;5113207;28;20020;-83
2021/07/08 02:50:21;;;;;;;22.85;11.38;;;614.80;1894.40;;;;;;5112963;28;20028;-82
2021/07/08 02:52:48;;;;;;;29.83;12.10;;;614.80;1894.40;;;;;;5113052;28;20089;-82
2021/07/08 02:55:16;;;;;;;21.45;12.10;;;614.80;1868.80;;;;;;5113946;28;20102;-82
2021/07/08 02:57:45;;;;;;;22.25;12.18;;;614.90;1868.80;;;;;;5112879;28;20054;-82
2021/07/08 03:00:12;;;;;;;17.80;11.18;;;615.10;1843.20;;;;;;5113144;28;20020;-83
2021/07/08 03:02:39;;;;;;;23.23;12.00;;;614.90;1868.80;;;;;;5112830;28;20028;-82
2021/07/08 03:05:06;;;;;;;20.73;12.23;;;614.70;1894.40;;;;;;5112852;28;20054;-83
2021/07/08 03:07:32;;;;;;;22.15;12.75;;;614.50;1920.00;;;;;;5112829;28;20028;-83
2021/07/08 03:09:58;;;;;;;22.10;12.90;;;614.40;1920.00;;;;;;5112605;28;20488;-83
2021/07/08 03:12:24;;;;;;;37.88;13.88;;;614.70;1920.00;;;;;;5113983;28;20027;-83
2021/07/08 03:14:50;;;;;;;17.77;11.43;;;614.40;1920.00;;;;;;5114008;28;20028;-83
2021/07/08 03:17:15;;;;;;;27.25;13.55;;;589.70;1920.00;;;;;;5113394;28;20480;-83
2021/07/08 03:19:41;;;;;;;28.42;14.00;;;589.60;1945.60;;;;;;5106757;28;20023;-83
2021/07/08 03:22:07;;;;;;;19.83;13.38;;;589.40;1971.20;;;;;;5091732;28;20047;-82
2021/07/08 03:24:33;;;;;;;21.65;14.80;;;589.40;1971.20;;;;;;5093201;28;20029;-83
2021/07/08 03:26:58;;;;;;;32.97;12.55;;;589.40;1971.20;;;;;;5092890;28;20485;-83
2021/07/08 03:29:24;;;;;;;33.33;14.07;;;589.30;1971.20;;;;;;5092024;28;20059;-84
2021/07/08 03:31:50;;;;;;;28.55;13.57;;;589.30;1996.80;;;;;;5092373;28;20016;-83
2021/07/08 03:34:16;;;;;;;42.13;15.77;;;589.30;1996.80;;;;;;5092058;28;20035;-83
2021/07/08 03:36:41;;;;;;;34.95;13.88;;;589.20;1996.80;;;;;;5091747;28;20450;-85
2021/07/08 03:39:07;;;;;;;26.05;13.20;;;589.30;1996.80;;;;;;5091962;28;20056;-84
2021/07/08 03:41:33;;;;;;;24.00;11.77;;;589.10;1996.80;;;;;;5093333;28;20059;-84
2021/07/08 03:43:59;;;;;;;19.38;12.25;;;589.30;1996.80;;;;;;5091740;28;20044;-83
2021/07/08 03:46:25;;;;;;;24.73;12.32;;;589.40;1996.80;;;;;;5092043;28;20061;-83
2021/07/08 03:48:51;;;;;;;24.52;13.63;;;589.20;2022.40;;;;;;5091991;28;20577;-84
2021/07/08 03:51:17;;;;;;;28.00;12.25;;;589.30;2022.40;;;;;;5091949;28;20034;-82
2021/07/08 03:53:42;;;;;;;33.60;13.43;;;589.30;2022.40;;;;;;5091914;28;20382;-82
2021/07/08 03:56:09;;;;;;;34.90;14.00;;;589.30;2022.40;;;;;;5091579;28;20055;-83
2021/07/08 03:58:35;;;;;;;34.25;14.10;;;589.30;2022.40;;;;;;5091331;28;20027;-83
2021/07/08 04:01:01;;;;;;;34.45;12.60;;;589.20;2022.40;;;;;;5091609;28;20481;-83
2021/07/08 04:03:26;;;;;;;27.10;12.27;;;589.40;2022.40;;;;;;5092075;28;20025;-83
2021/07/08 04:05:52;;;;;;;28.70;12.45;;;589.40;2022.40;;;;;;5091834;28;20102;-83
2021/07/08 04:08:18;;;;;;;19.30;11.45;;;589.30;2022.40;;;;;;5092584;28;20487;-82
2021/07/08 04:10:45;;;;;;;19.48;12.43;;;589.40;2022.40;;;;;;5098864;28;20016;-83
2021/07/08 04:13:14;;;;;;;21.23;12.05;;;589.40;2022.40;;;;;;5111563;28;20388;-83
2021/07/08 04:15:40;;;;;;;22.05;11.80;;;589.50;2022.40;;;;;;5110483;28;20046;-82
2021/07/08 04:18:07;;;;;;;25.30;12.10;;;589.60;2022.40;;;;;;5112904;28;20032;-86
2021/07/08 04:20:33;;;;;;;19.95;12.15;;;589.70;2022.40;;;;;;5112463;28;20016;-84
2021/07/08 04:23:00;;;;;;;23.77;13.82;;;589.70;2048.00;;;;;;5112381;27;20028;-82
2021/07/08 04:25:26;;;;;;;18.65;13.13;;;589.70;2048.00;;;;;;5111415;28;20027;-80
2021/07/08 04:27:52;;;;;;;19.33;12.23;;;614.50;2022.40;;;;;;5111222;28;20385;-82
2021/07/08 04:30:21;;;;;;;18.63;13.02;;;614.50;2022.40;;;;;;5111394;28;20115;-81
2021/07/08 04:32:47;;;;;;;20.13;12.10;;;614.60;2022.40;;;;;;5111272;28;20019;-82
2021/07/08 04:35:18;;;;;;;17.70;12.20;;;614.70;2022.40;;;;;;5111750;28;20436;-81
2021/07/08 04:37:44;;;;;;;30.17;14.00;;;614.80;2022.40;;;;;;5111617;28;20118;-82
2021/07/08 04:40:16;;;;;;;19.15;12.43;;;614.90;2022.40;;;;;;5115337;28;20058;-80
2021/07/08 04:42:42;;;;;;;26.67;12.57;;;615.00;1996.80;;;;;;5127093;28;20066;-81
2021/07/08 04:45:10;;;;;;;20.02;12.20;;;615.10;1996.80;;;;;;5123976;28;20040;-83
2021/07/08 04:47:40;;;;;;;21.90;11.70;;;615.10;1971.20;;;;;;5111813;28;20038;-82
2021/07/08 04:50:09;;;;;;;22.90;11.00;;;615.20;1945.60;;;;;;5111432;28;20114;-82
2021/07/08 04:52:36;;;;;;;21.60;11.35;;;615.30;1945.60;;;;;;5111353;28;20035;-82
2021/07/08 04:55:03;;;;;;;21.58;12.18;;;640.00;1945.60;;;;;;5111061;28;20023;-82
2021/07/08 04:57:29;;;;;;;19.77;11.23;;;640.10;1920.00;;;;;;5111570;28;20488;-83
2021/07/08 04:59:55;;;;;;;20.60;11.52;;;640.30;1920.00;;;;;;5110991;28;20039;-81
2021/07/08 05:02:20;;;;;;;16.30;10.52;;;640.40;1894.40;;;;;;5110946;28;20031;-81
2021/07/08 05:04:46;;;;;;;26.23;12.15;;;640.40;1868.80;;;;;;5110618;28;20382;-82
2021/07/08 05:07:13;;;;;;;17.63;11.88;;;640.20;1894.40;;;;;;5110988;28;20020;-82
2021/07/08 05:09:39;;;;;;;16.88;10.23;;;640.30;1868.80;;;;;;5111422;28;20043;-82
2021/07/08 05:12:06;;;;;;;27.92;12.57;;;640.40;1868.80;;;;;;5114042;28;20063;-83
2021/07/08 05:14:33;;;;;;;22.23;10.60;;;640.50;1868.80;;;;;;5113822;28;20040;-80
2021/07/08 05:17:00;;;;;;;15.57;10.15;;;640.60;1843.20;;;;;;5111685;28;20075;-82
2021/07/08 05:19:26;;;;;;;16.77;11.48;;;640.70;1843.20;;;;;;5114722;28;20118;-82
2021/07/08 05:21:53;;;;;;;15.73;10.90;;;640.80;1843.20;;;;;;5114672;28;20457;-82
2021/07/08 05:24:21;;;;;;;21.77;10.68;;;640.90;1843.20;;;;;;5114378;28;20115;-81
2021/07/08 05:26:47;;;;;;;18.58;10.75;;;665.60;1843.20;;;;;;5114737;28;20107;-81
2021/07/08 05:29:13;;;;;;;16.23;10.30;;;665.70;1843.20;;;;;;5114654;27;20028;-82
2021/07/08 05:31:39;;;;;;;39.00;11.95;;;665.80;1868.80;;;;;;5114673;28;20541;-81
2021/07/08 05:34:05;;;;;;;24.45;10.35;;;666.00;1843.20;;;;;;5114554;28;20024;-82
2021/07/08 05:36:31;;;;;;;13.95;10.40;;;666.20;1817.60;;;;;;5114349;28;20039;-81
2021/07/08 05:38:57;;;;;;;15.88;10.18;;;666.30;1817.60;;;;;;5114547;27;20032;-84
2021/07/08 05:41:23;;;;;;;18.83;10.10;;;666.50;1766.40;;;;;;5114710;28;20035;-83
2021/07/08 05:43:49;;;;;;;13.75;9.77;;;666.50;1766.40;;;;;;5113933;28;20070;-81
2021/07/08 05:46:14;;;;;;;14.05;9.70;;;691.30;1792.00;;;;;;5114508;28;20122;-81
2021/07/08 05:48:40;;;;;;;18.42;9.57;;;691.40;1766.40;;;;;;5113118;28;20039;-80
2021/07/08 05:51:06;;;;;;;19.90;10.82;;;691.50;1766.40;;;;;;5113638;27;20028;-80
2021/07/08 05:53:31;;;;;;;15.25;10.65;;;691.60;1740.80;;;;;;5113435;28;20027;-81
2021/07/08 05:55:57;;;;;;;13.20;10.73;;;691.60;1740.80;;;;;;5113790;28;20046;-81
2021/07/08 05:58:23;;;;;;;11.38;10.13;;;691.80;1740.80;;;;;;5113659;28;20605;-81
2021/07/08 06:00:49;;;;;;;11.63;9.75;;;691.90;1715.20;;;;;;5113300;28;20038;-82
2021/07/08 06:03:16;;;;;;;13.23;10.52;;;691.90;1715.20;;;;;;5113821;27;20028;-82
2021/07/08 06:05:42;;;;;;;16.75;10.35;;;692.10;1715.20;;;;;;5113175;28;20079;-82
2021/07/08 06:08:08;;;;;;;15.10;10.70;;;716.90;1715.20;;;;;;5112574;28;20119;-82
2021/07/08 06:10:34;;;;;;;15.73;10.25;;;716.90;1689.60;;;;;;5113568;28;20052;-82
2021/07/08 06:12:59;;;;;;;17.23;10.60;;;716.90;1715.20;;;;;;5113757;28;20035;-82
2021/07/08 06:15:25;;;;;;;40.45;15.90;;;717.00;1689.60;;;;;;5113107;28;20032;-81
2021/07/08 06:17:51;;;;;;;12.57;8.98;;;717.10;1689.60;;;;;;5113407;28;20084;-80
2021/07/08 06:20:17;;;;;;;17.45;9.77;;;717.10;1664.00;;;;;;5113711;28;20019;-82
2021/07/08 06:22:46;;;;;;;20.50;10.38;;;717.30;1689.60;;;;;;5114159;28;20042;-82
2021/07/08 06:25:12;;;;;;;12.60;10.02;;;717.40;1664.00;;;;;;5113486;28;20111;-82
2021/07/08 06:27:39;;;;;;;17.10;10.50;;;717.60;1664.00;;;;;;5112378;28;20088;-81
2021/07/08 06:30:06;;;;;;;16.60;10.40;;;742.40;1664.00;;;;;;5113346;28;20111;-82
2021/07/08 06:32:32;;;;;;;12.43;10.95;;;742.40;1664.00;;;;;;5113217;28;20039;-81
2021/07/08 06:34:59;;;;;;;15.25;11.50;;;717.70;1612.80;;;;;;5113319;28;20020;-82
2021/07/08 06:37:25;;;;;;;12.38;10.80;;;742.40;1664.00;;;;;;5112704;28;20115;-81
2021/07/08 06:39:53;;;;;;;20.70;10.57;;;742.50;1638.40;;;;;;5112803;28;20035;-81
2021/07/08 06:42:19;;;;;;;11.90;10.05;;;742.60;1638.40;;;;;;5112633;28;20016;-81
2021/07/08 06:44:45;;;;;;;13.82;9.40;;;742.70;1638.40;;;;;;5112492;28;20043;-82
2021/07/08 06:47:15;;;;;;;18.00;10.75;;;742.90;1612.80;;;;;;5112204;28;20298;-80
2021/07/08 06:49:40;;;;;;;12.23;9.98;;;742.90;1612.80;;;;;;5113129;28;20039;-83
2021/07/08 06:52:06;;;;;;;16.88;10.63;;;743.00;1612.80;;;;;;5112637;28;20393;-81
2021/07/08 06:54:33;;;;;;;20.40;15.35;;;743.00;1587.20;;;;;;5107867;28;20392;-82
2021/07/08 06:56:58;;;;;;;11.60;10.27;;;743.10;1612.80;;;;;;5111823;28;20035;-81
2021/07/08 06:59:24;;;;;;;14.77;11.02;;;743.20;1587.20;;;;;;5112453;28;20024;-81
2021/07/08 07:01:50;;;;;;;14.18;10.30;;;743.20;1587.20;;;;;;5112487;28;20033;-78
2021/07/08 07:04:16;;;;;;;15.13;9.77;;;768.00;1561.60;;;;;;5112086;27;20456;-79
2021/07/08 07:06:42;;;;;;;13.20;10.40;;;768.20;1587.20;;;;;;5112070;28;20034;-81
2021/07/08 07:09:08;;;;;;;14.65;9.27;;;768.40;1561.60;;;;;;5111473;28;20080;-79
2021/07/08 07:11:34;;;;;;;16.85;9.60;;;768.50;1536.00;;;;;;5111603;28;20044;-81
2021/07/08 07:13:59;;;;;;;16.38;9.70;;;768.60;1536.00;;;;;;5112322;28;20061;-80
2021/07/08 07:16:25;;;;;;;11.45;10.02;;;768.80;1510.40;;;;;;5111819;28;20556;-83
2021/07/08 07:18:51;;;;;;;11.80;9.55;;;768.90;1510.40;;;;;;5112133;28;20027;-81
2021/07/08 07:21:17;;;;;;;18.80;9.93;;;768.90;1484.80;;;;;;5111877;28;20035;-82
2021/07/08 07:23:43;;;;;;;19.33;10.45;;;768.90;1510.40;;;;;;5113346;28;20027;-86
2021/07/08 07:26:10;;;;;;;11.73;10.52;;;793.70;1510.40;;;;;;5111648;28;20469;-81
2021/07/08 07:28:36;;;;;;;13.10;10.50;;;793.90;1510.40;;;;;;5112213;28;20032;-80
2021/07/08 07:31:02;;;;;;;13.57;10.82;;;794.00;1484.80;;;;;;5111663;28;20023;-80
2021/07/08 07:33:28;;;;;;;17.90;10.45;;;794.00;1484.80;;;;;;5111366;28;20535;-80
2021/07/08 07:35:54;;;;;;;14.68;11.40;;;794.10;1459.20;;;;;;5112213;28;20126;-81
2021/07/08 07:38:21;;;;;;;12.27;10.25;;;794.30;1484.80;;;;;;5111813;27;20024;-80
2021/07/08 07:40:46;;;;;;;17.50;10.52;;;794.40;1459.20;;;;;;5111804;28;20370;-80
2021/07/08 07:43:14;;;;;;;14.90;9.98;;;794.50;1433.60;;;;;;5110854;28;20158;-80
2021/07/08 07:45:41;;;;;;;24.10;11.65;;;794.50;1459.20;;;;;;5111707;28;20035;-81
2021/07/08 07:48:11;;;;;;;14.68;10.85;;;819.20;1459.20;;;;;;5111514;28;20020;-80
2021/07/08 07:50:37;;;;;;;16.83;10.48;;;819.50;1484.80;;;;;;5111193;28;20057;-81
2021/07/08 07:53:03;;;;;;;15.52;11.38;;;819.50;1408.00;;;;;;5111273;28;20373;-80
2021/07/08 07:55:29;;;;;;;15.65;9.75;;;819.60;1408.00;;;;;;5110930;28;20073;-80
2021/07/08 07:57:57;;;;;;;14.50;10.35;;;819.80;1408.00;;;;;;5112022;28;20031;-82
2021/07/08 08:00:23;;;;;;;15.32;9.52;;;819.80;1408.00;;;;;;5112937;28;20069;-82
2021/07/08 08:02:49;;;;;;;13.60;10.27;;;820.10;1408.00;;;;;;5111455;28;20059;-81
2021/07/08 08:10:27;;;;;;;14.30;10.15;;;844.90;1356.80;;;;;;5117714;28;20034;-79
2021/07/08 08:12:53;;;;;;;12.82;10.57;;;845.10;1382.40;;;;;;5113074;28;20114;-78
2021/07/08 08:15:19;;;;;;;15.27;9.55;;;845.20;1356.80;;;;;;5111016;28;20024;-79
2021/07/08 08:17:46;;;;;;;10.93;9.27;;;845.30;1331.20;;;;;;5111090;28;20112;-80
2021/07/08 08:20:16;;;;;;;12.88;10.13;;;845.40;1331.20;;;;;;5111217;28;20383;-83
2021/07/08 08:22:43;;;;;;;17.48;9.85;;;845.50;1305.60;;;;;;5111246;28;20070;-86
2021/07/08 08:25:11;;;;;;;9.65;8.65;;;845.60;1305.60;;;;;;5111159;28;20020;-79
2021/07/08 08:27:37;;;;;;;15.48;9.77;;;845.70;1228.80;;;;;;5111251;28;20030;-83
2021/07/08 08:30:08;;;;;;;19.10;10.27;;;845.60;1254.40;;;;;;5111890;28;20072;-81
2021/07/08 08:32:34;;;;;;;9.55;8.60;;;845.70;1280.00;;;;;;5110583;28;20059;-82
2021/07/08 08:34:59;;;;;;;10.80;9.07;;;870.50;1228.80;;;;;;5110997;28;20472;-81
2021/07/08 08:37:25;;;;;;;13.07;8.45;;;870.50;1228.80;;;;;;5111280;28;20039;-81
2021/07/08 08:39:51;;;;;;;13.00;8.05;;;870.50;1228.80;;;;;;5112108;28;20028;-82
2021/07/08 08:42:17;;;;;;;8.65;7.78;;;870.50;1203.20;;;;;;5111278;28;20122;-79
2021/07/08 08:44:43;;;;;;;15.73;8.65;;;870.80;1177.60;;;;;;5110524;28;20624;-80
2021/07/08 08:47:11;;;;;;;11.30;7.85;;;870.80;1152.00;;;;;;5114659;28;20084;-81
2021/07/08 08:49:41;;;;;;;9.60;7.40;;;870.90;1126.40;;;;;;5114976;27;20035;-80
2021/07/08 08:52:11;;;;;;;8.07;7.28;;;870.90;1100.80;;;;;;5115076;28;20024;-80
2021/07/08 08:54:39;;;;;;;9.18;7.53;;;871.10;1100.80;;;;;;5115778;28;20034;-79
2021/07/08 08:57:05;;;;;;;9.65;7.60;;;871.10;1075.20;;;;;;5114536;28;20059;-79
2021/07/08 08:59:31;;;;;;;8.55;7.50;;;871.10;1126.40;;;;;;5115959;28;20418;-79
2021/07/08 09:02:17;;;;;;;11.50;7.80;;;871.00;1075.20;;;;;;5115760;28;20055;-79
2021/07/08 09:04:43;;;;;;;9.35;7.22;;;871.10;1100.80;;;;;;5114549;28;20023;-79
2021/07/08 09:07:22;;;;;;;11.75;7.78;;;871.10;1126.40;;;;;;5114240;28;20039;-79
2021/07/08 09:09:49;;;;;;;8.35;7.45;;;871.10;1126.40;;;;;;5114051;28;20027;-78
2021/07/08 09:12:19;;;;;;;9.45;8.20;;;871.10;1152.00;;;;;;5115886;28;20024;-84
2021/07/08 09:14:45;;;;;;;11.05;8.65;;;871.30;1126.40;;;;;;5114088;28;20036;-82
2021/07/08 09:17:22;;;;;;;10.05;8.70;;;896.00;1126.40;;;;;;5114344;28;20061;-81
2021/07/08 09:20:05;;;;;;;11.38;9.35;;;871.10;1126.40;;;;;;5114635;28;20027;-79
2021/07/08 09:22:32;;;;;;;10.02;7.63;;;896.20;1152.00;;;;;;5115546;28;20019;-83
2021/07/08 09:24:57;;;;;;;9.10;8.20;;;896.10;1100.80;;;;;;5114428;28;20065;-80
2021/07/08 09:27:27;;;;;;;8.98;7.80;;;896.30;1100.80;;;;;;5114683;28;20016;-81
2021/07/08 09:29:54;;;;;;;11.02;8.25;;;896.20;1126.40;;;;;;5115579;28;20027;-79
2021/07/08 09:32:24;;;;;;;13.90;8.02;;;896.30;1126.40;;;;;;5114128;28;20068;-81
2021/07/08 09:34:56;;;;;;;13.13;8.88;;;896.40;1075.20;;;;;;5114201;28;20557;-82
2021/07/08 09:37:26;;;;;;;13.65;8.13;;;896.70;1126.40;;;;;;5114396;28;20127;-82
2021/07/08 09:39:54;;;;;;;9.77;8.38;;;896.70;1100.80;;;;;;5114346;28;20024;-82
2021/07/08 09:42:38;;;;;;;13.95;8.32;;;896.90;1075.20;;;;;;5114240;28;20442;-80
2021/07/08 09:45:08;;;;;;;8.35;7.22;;;921.60;1100.80;;;;;;5113829;28;20100;-78
2021/07/08 09:47:37;;;;;;;9.05;7.20;;;921.80;1049.60;;;;;;5113289;28;20047;-81
2021/07/08 09:50:06;;;;;;;9.20;6.03;;;922.00;1024.00;;;;;;5113573;28;20081;-80
2021/07/08 09:52:33;;;;;;;9.48;5.60;;;922.10;1024.00;;;;;;5108491;28;20031;-78
2021/07/08 09:55:13;;;;;;;7.05;5.80;;;922.40;947.20;;;;;;5112677;28;20019;-78
2021/07/08 09:57:47;;;;;;;9.55;6.10;;;922.50;921.60;;;;;;5111346;28;20031;-77
2021/07/08 10:00:18;;;;;;;7.60;5.38;;;922.50;921.60;;;;;;5111270;28;20047;-79
2021/07/08 10:02:45;;;;;;;9.65;5.38;;;922.50;870.40;;;;;;5113193;28;20084;-79
2021/07/08 10:05:11;;;;;;;13.35;5.55;;;947.20;896.00;;;;;;5114452;28;20026;-82
2021/07/08 10:07:38;;;;;;;8.93;5.18;;;947.80;896.00;;;;;;5113441;27;20034;-80
2021/07/08 10:10:05;;;;;;;9.35;4.10;;;973.10;844.80;;;;;;5112801;27;20023;-80
2021/07/08 10:12:32;;;;;;;5.10;4.30;;;998.50;819.20;;;;;;5112283;28;20069;-80
2021/07/08 10:15:01;;;;;;;8.13;4.82;;;998.80;819.20;;;;;;5114730;28;20469;-80
2021/07/08 10:17:31;;;;;;;7.88;5.53;;;998.80;793.60;;;;;;5113001;28;20039;-80
2021/07/08 10:19:57;;;;;;;9.52;5.28;;;998.80;844.80;;;;;;5113962;28;20024;-81
2021/07/08 10:22:23;;;;;;;10.20;5.82;;;1024.00;819.20;;;;;;5112805;28;20039;-80
2021/07/08 10:24:50;;;;;;;9.75;5.47;;;999.10;844.80;;;;;;5112734;28;20393;-84
2021/07/08 10:27:20;;;;;;;12.05;5.90;;;999.10;819.20;;;;;;5112614;28;20066;-79
2021/07/08 10:29:48;;;;;;;11.30;5.70;;;998.90;819.20;;;;;;5112786;28;20027;-80
2021/07/08 10:32:16;;;;;;;7.10;5.38;;;999.00;844.80;;;;;;5113249;27;20059;-84
2021/07/08 10:34:47;;;;;;;7.90;5.03;;;1024.70;793.60;;;;;;5113206;28;20029;-80
2021/07/08 10:37:25;;;;;;;12.27;5.35;;;1024.50;793.60;;;;;;5112702;28;20046;-87
2021/07/08 10:39:52;;;;;;;8.73;5.78;;;1024.50;768.00;;;;;;5112929;28;20350;-81
2021/07/08 10:42:43;;;;;;;8.43;5.20;;;1024.40;793.60;;;;;;5112903;28;20544;-82
2021/07/08 10:45:35;;;;;;;12.27;7.45;;;1024.60;793.60;;;;;;5112364;28;20055;-79
2021/07/08 10:48:15;;;;;;;15.57;5.60;;;1024.10;819.20;;;;;;5113765;28;20031;-80
2021/07/08 10:50:49;;;;;;;10.15;5.70;;;1024.10;844.80;;;;;;5111942;28;20031;-78
2021/07/08 10:53:16;;;;;;;11.60;5.68;;;1024.20;819.20;;;;;;5113282;28;20028;-78
2021/07/08 10:55:45;;;;;;;9.95;5.50;;;1024.20;819.20;;;;;;5112082;28;20502;-78
2021/07/08 10:58:51;;;;;;;9.30;6.00;;;999.20;819.20;;;;;;5112059;28;20472;-77
2021/07/08 11:01:23;;;;;;;11.00;6.32;;;999.10;844.80;;;;;;5113172;28;20072;-78
2021/07/08 11:04:02;;;;;;;8.77;6.22;;;999.00;844.80;;;;;;5111919;28;20016;-78
2021/07/08 11:06:30;;;;;;;10.85;6.35;;;998.90;844.80;;;;;;5112840;28;20106;-77
2021/07/08 11:09:19;;;;;;;9.80;5.53;;;998.80;844.80;;;;;;5112879;28;20073;-78
2021/07/08 11:11:50;;;;;;;8.75;6.20;;;998.80;870.40;;;;;;5112007;28;20093;-78
2021/07/08 11:14:16;;;;;;;19.90;7.10;;;998.80;870.40;;;;;;5112755;28;20030;-82
2021/07/08 11:17:02;;;;;;;15.93;6.15;;;998.70;896.00;;;;;;5112906;28;20031;-78
2021/07/08 11:19:27;;;;;;;14.63;6.22;;;998.50;870.40;;;;;;5113011;28;20023;-77
2021/07/08 11:21:59;;;;;;;12.23;6.00;;;998.40;870.40;;;;;;5112867;28;20027;-79
2021/07/08 11:24:48;;;;;;;11.77;6.00;;;973.70;844.80;;;;;;5112648;28;20016;-78
2021/07/08 11:27:13;;;;;;;9.10;5.70;;;998.40;896.00;;;;;;5111352;28;20034;-80
2021/07/08 11:29:48;;;;;;;12.90;6.45;;;998.50;870.40;;;;;;5112964;28;20099;-80
2021/07/08 11:32:45;;;;;;;8.18;6.47;;;998.70;870.40;;;;;;5111780;28;20032;-82
2021/07/08 11:35:28;;;;;;;9.15;5.35;;;998.80;896.00;;;;;;5111451;28;20039;-77
2021/07/08 11:38:01;;;;;;;10.90;5.72;;;998.80;870.40;;;;;;5111844;28;20052;-80
2021/07/08 11:40:31;;;;;;;10.52;6.32;;;998.80;870.40;;;;;;5109274;28;20027;-77
2021/07/08 11:42:57;;;;;;;14.45;6.80;;;998.50;870.40;;;;;;5112315;28;20031;-77
2021/07/08 11:45:25;;;;;;;8.15;6.28;;;998.70;870.40;;;;;;5112323;28;20377;-78
2021/07/08 11:47:54;;;;;;;13.57;6.18;;;998.70;896.00;;;;;;5112600;28;20047;-83
2021/07/08 11:50:30;;;;;;;11.05;5.57;;;998.80;870.40;;;;;;5112365;28;20055;-77
2021/07/08 11:53:15;;;;;;;6.43;5.63;;;998.80;844.80;;;;;;5112208;28;20110;-78
2021/07/08 11:55:46;;;;;;;9.88;6.35;;;998.80;870.40;;;;;;5111797;28;20028;-78
2021/07/08 11:58:15;;;;;;;16.48;6.80;;;998.80;870.40;;;;;;5111289;28;20110;-79
2021/07/08 12:00:46;;;;;;;14.15;6.82;;;998.80;844.80;;;;;;5111071;28;20024;-79
2021/07/08 12:03:43;;;;;;;11.13;5.95;;;998.80;896.00;;;;;;5112356;28;20423;-83
2021/07/08 12:06:12;;;;;;;13.38;6.53;;;998.80;896.00;;;;;;5112153;28;20104;-83
2021/07/08 12:08:40;;;;;;;11.13;6.30;;;999.00;870.40;;;;;;5111204;28;20033;-80
2021/07/08 12:11:19;;;;;;;12.32;6.28;;;998.80;844.80;;;;;;5110880;28;20030;-86
2021/07/08 12:13:47;;;;;;;18.42;6.85;;;998.80;870.40;;;;;;5110940;28;20027;-82
2021/07/08 12:16:13;;;;;;;13.45;5.85;;;998.80;870.40;;;;;;5112505;28;20469;-77